createdAt,value
2018-11-25T00:00:31.245Z,101096.53
2018-11-25T00:03:00.296Z,101091.95
2018-11-25T00:05:29.106Z,101094.19
2018-11-25T00:07:57.917Z,101091.49
2018-11-25T00:10:27.657Z,101099.80
2018-11-25T00:12:56.604Z,101094.66
2018-11-25T00:15:25.948Z,101096.43
2018-11-25T00:17:55.015Z,101097.45
2018-11-25T00:20:24.798Z,101101.45
2018-11-25T00:22:54.415Z,101106.68
2018-11-25T00:25:24.106Z,101109.84
2018-11-25T00:27:55.026Z,101107.78
2018-11-25T00:30:23.956Z,101101.34
2018-11-25T00:32:53.959Z,101105.46
2018-11-25T00:35:22.963Z,101100.88
2018-11-25T00:37:52.160Z,101107.11
2018-11-25T00:40:21.029Z,101102.44
2018-11-25T00:42:50.747Z,101098.91
2018-11-25T00:45:20.560Z,101095.16
2018-11-25T00:47:50.100Z,101090.52
2018-11-25T00:50:18.967Z,101096.58
2018-11-25T00:52:47.792Z,101097.89
2018-11-25T00:55:18.421Z,101103.20
2018-11-25T00:57:48.377Z,101103.45
2018-11-25T01:00:18.905Z,101103.16
2018-11-25T01:02:49.782Z,101104.30
2018-11-25T01:05:18.586Z,101104.46
2018-11-25T01:07:47.406Z,101099.79
2018-11-25T01:10:17.452Z,101102.11
2018-11-25T01:12:46.543Z,101110.41
2018-11-25T01:15:17.292Z,101110.98
2018-11-25T01:17:46.109Z,101106.70
2018-11-25T01:20:18.537Z,101109.72
2018-11-25T01:22:48.043Z,101107.03
2018-11-25T01:25:17.665Z,101109.67
2018-11-25T01:27:46.552Z,101108.27
2018-11-25T01:30:17.928Z,101101.73
2018-11-25T01:32:46.727Z,101106.05
2018-11-25T01:35:15.882Z,101108.57
2018-11-25T01:37:44.869Z,101099.70
2018-11-25T01:40:16.682Z,101120.45
2018-11-25T01:42:46.213Z,101105.50
2018-11-25T01:45:20.016Z,101100.44
2018-11-25T01:47:49.287Z,101096.21
2018-11-25T01:50:18.859Z,101108.36
2018-11-25T01:52:48.501Z,101094.13
2018-11-25T01:55:19.138Z,101087.40
2018-11-25T01:57:48.932Z,101085.02
2018-11-25T02:00:20.613Z,101090.97
2018-11-25T02:02:50.465Z,101089.98
2018-11-25T02:05:25.858Z,101097.64
2018-11-25T02:07:54.764Z,101094.69
2018-11-25T02:10:24.337Z,101094.07
2018-11-25T02:12:53.407Z,101085.30
2018-11-25T02:15:23.752Z,101090.56
2018-11-25T02:17:52.828Z,101101.16
2018-11-25T02:20:23.680Z,101104.72
2018-11-25T02:22:53.649Z,101097.70
2018-11-25T02:25:23.561Z,101095.10
2018-11-25T02:27:52.573Z,101099.97
2018-11-25T02:30:21.696Z,101104.46
2018-11-25T02:32:52.004Z,101097.62
2018-11-25T02:35:21.306Z,101096.95
2018-11-25T02:37:50.479Z,101095.38
2018-11-25T02:40:19.527Z,101095.56
2018-11-25T02:42:48.948Z,101090.00
2018-11-25T02:45:18.736Z,101087.20
2018-11-25T02:47:47.563Z,101090.83
2018-11-25T02:50:33.767Z,101081.65
2018-11-25T02:53:05.193Z,101088.77
2018-11-25T02:55:34.019Z,101091.66
2018-11-25T02:58:03.562Z,101091.66
2018-11-25T03:00:34.022Z,101083.23
2018-11-25T03:03:02.839Z,101080.27
2018-11-25T03:05:31.732Z,101081.11
2018-11-25T03:08:00.562Z,101086.03
2018-11-25T03:10:30.482Z,101083.03
2018-11-25T03:12:59.230Z,101085.08
2018-11-25T03:15:28.629Z,101078.42
2018-11-25T03:17:57.430Z,101081.41
2018-11-25T03:20:26.907Z,101078.55
2018-11-25T03:22:55.691Z,101079.89
2018-11-25T03:25:25.030Z,101074.84
2018-11-25T03:27:54.073Z,101072.23
2018-11-25T03:30:23.173Z,101072.13
2018-11-25T03:32:53.211Z,101075.23
2018-11-25T03:35:22.902Z,101069.73
2018-11-25T03:37:52.385Z,101073.69
2018-11-25T03:40:21.247Z,101074.05
2018-11-25T03:42:50.170Z,101069.98
2018-11-25T03:45:21.890Z,101073.09
2018-11-25T03:47:51.347Z,101073.09
2018-11-25T03:50:22.437Z,101067.95
2018-11-25T03:52:51.347Z,101072.37
2018-11-25T03:55:20.385Z,101070.10
2018-11-25T03:57:50.759Z,101066.99
2018-11-25T04:00:21.605Z,101077.87
2018-11-25T04:02:52.308Z,101073.67
2018-11-25T04:05:22.977Z,101069.49
2018-11-25T04:07:51.986Z,101059.22
2018-11-25T04:10:21.509Z,101068.31
2018-11-25T04:12:50.550Z,101067.47
2018-11-25T04:15:20.372Z,101067.72
2018-11-25T04:17:49.408Z,101068.66
2018-11-25T04:20:19.830Z,101067.34
2018-11-25T04:22:48.933Z,101063.16
2018-11-25T04:25:18.645Z,101056.47
2018-11-25T04:27:47.458Z,101055.62
2018-11-25T04:30:47.073Z,101053.70
2018-11-25T04:33:15.863Z,101055.02
2018-11-25T04:35:45.684Z,101053.83
2018-11-25T04:38:14.476Z,101049.40
2018-11-25T04:40:43.294Z,101050.23
2018-11-25T04:43:12.142Z,101051.67
2018-11-25T04:45:41.686Z,101052.41
2018-11-25T04:48:10.446Z,101056.11
2018-11-25T04:50:39.320Z,101048.70
2018-11-25T04:53:08.195Z,101047.86
2018-11-25T04:55:37.000Z,101055.41
2018-11-25T04:58:07.513Z,101052.98
2018-11-25T05:00:36.894Z,101054.43
2018-11-25T05:03:06.123Z,101051.32
2018-11-25T05:05:35.570Z,101051.09
2018-11-25T05:09:08.640Z,101051.55
2018-11-25T05:11:37.911Z,101051.31
2018-11-25T05:14:07.623Z,101049.52
2018-11-25T05:16:36.503Z,101055.02
2018-11-25T05:19:05.370Z,101052.64
2018-11-25T05:21:35.118Z,101051.92
2018-11-25T05:24:04.807Z,101054.20
2018-11-25T05:26:33.690Z,101053.72
2018-11-25T05:29:02.648Z,101053.24
2018-11-25T05:31:31.645Z,101056.44
2018-11-25T05:34:01.252Z,101065.54
2018-11-25T05:36:31.005Z,101059.91
2018-11-25T05:39:05.727Z,101068.89
2018-11-25T05:41:34.786Z,101071.41
2018-11-25T05:44:04.674Z,101074.28
2018-11-25T05:46:33.599Z,101071.17
2018-11-25T05:49:02.699Z,101071.53
2018-11-25T05:51:31.803Z,101075.33
2018-11-25T05:56:50.409Z,101088.64
2018-11-25T05:59:20.428Z,101087.08
2018-11-25T06:01:50.263Z,101085.16
2018-11-25T06:04:20.286Z,101091.50
2018-11-25T06:06:49.461Z,101095.22
2018-11-25T06:09:20.609Z,101095.47
2018-11-25T06:11:49.646Z,101097.38
2018-11-25T06:14:19.472Z,101100.59
2018-11-25T06:16:48.265Z,101096.05
2018-11-25T06:19:17.086Z,101098.08
2018-11-25T06:21:46.581Z,101097.97
2018-11-25T06:24:16.423Z,101106.80
2018-11-25T06:26:45.390Z,101106.08
2018-11-25T06:29:14.636Z,101107.88
2018-11-25T06:31:43.623Z,101113.15
2018-11-25T06:34:15.096Z,101113.15
2018-11-25T06:36:44.974Z,101107.87
2018-11-25T06:42:46.630Z,101115.91
2018-11-25T06:45:32.264Z,101127.49
2018-11-25T06:48:01.623Z,101127.02
2018-11-25T06:50:30.870Z,101123.30
2018-11-25T06:53:00.120Z,101125.94
2018-11-25T06:55:29.267Z,101133.84
2018-11-25T06:57:59.601Z,101136.00
2018-11-25T07:00:29.756Z,101135.52
2018-11-25T07:02:59.321Z,101140.07
2018-11-25T07:05:29.032Z,101135.73
2018-11-25T07:07:58.554Z,101129.41
2018-11-25T07:10:28.350Z,101138.61
2018-11-25T07:15:55.701Z,101144.36
2018-11-25T07:18:27.251Z,101148.55
2018-11-25T07:20:57.561Z,101145.31
2018-11-25T07:23:28.588Z,101143.03
2018-11-25T07:25:58.027Z,101141.84
2018-11-25T07:28:36.565Z,101142.44
2018-11-25T07:31:06.594Z,101146.42
2018-11-25T07:33:36.920Z,101149.05
2018-11-25T07:36:07.724Z,101150.97
2018-11-25T07:38:41.871Z,101145.91
2018-11-25T07:41:11.966Z,101148.91
2018-11-25T07:43:41.228Z,101147.35
2018-11-25T07:46:10.740Z,101150.34
2018-11-25T07:48:40.404Z,101153.82
2018-11-25T07:51:09.394Z,101149.75
2018-11-25T07:53:39.592Z,101157.38
2018-11-25T07:56:08.985Z,101154.23
2018-11-25T07:58:39.270Z,101145.13
2018-11-25T08:01:08.616Z,101148.84
2018-11-25T08:03:37.712Z,101148.72
2018-11-25T08:06:07.037Z,101146.13
2018-11-25T08:08:39.071Z,101146.69
2018-11-25T08:11:08.058Z,101150.64
2018-11-25T08:13:37.216Z,101146.96
2018-11-25T08:16:07.643Z,101155.50
2018-11-25T08:18:36.745Z,101153.70
2018-11-25T08:21:07.219Z,101149.03
2018-11-25T08:23:37.373Z,101152.05
2018-11-25T08:26:06.960Z,101154.31
2018-11-25T08:28:36.051Z,101152.16
2018-11-25T08:31:05.359Z,101161.16
2018-11-25T08:33:34.561Z,101155.66
2018-11-25T08:36:04.434Z,101154.44
2018-11-25T08:38:33.393Z,101157.67
2018-11-25T08:41:02.438Z,101156.36
2018-11-25T08:43:31.347Z,101152.05
2018-11-25T08:46:01.399Z,101158.16
2018-11-25T08:48:30.493Z,101164.88
2018-11-25T08:50:59.642Z,101156.58
2018-11-25T08:53:28.892Z,101146.43
2018-11-25T08:55:59.190Z,101156.11
2018-11-25T08:58:29.056Z,101144.04
2018-11-25T09:00:58.785Z,101163.05
2018-11-25T09:03:27.647Z,101162.58
2018-11-25T09:05:57.306Z,101163.41
2018-11-25T09:08:26.539Z,101163.05
2018-11-25T09:10:58.051Z,101164.73
2018-11-25T09:13:27.212Z,101166.41
2018-11-25T09:15:57.388Z,101161.96
2018-11-25T09:18:26.935Z,101167.71
2018-11-25T09:20:56.916Z,101168.05
2018-11-25T09:23:26.521Z,101173.31
2018-11-25T09:25:56.418Z,101174.28
2018-11-25T09:28:26.249Z,101174.84
2018-11-25T09:30:55.992Z,101173.41
2018-11-25T09:33:26.024Z,101163.22
2018-11-25T09:35:56.091Z,101164.90
2018-11-25T09:38:24.999Z,101168.22
2018-11-25T09:40:59.210Z,101162.10
2018-11-25T09:43:23.546Z,101163.42
2018-11-25T09:45:53.326Z,101164.73
2018-11-25T09:48:22.432Z,101156.11
2018-11-25T09:50:51.554Z,101146.77
2018-11-25T09:53:20.440Z,101148.92
2018-11-25T09:55:49.295Z,101152.88
2018-11-25T09:58:25.352Z,101157.55
2018-11-25T10:00:48.638Z,101143.28
2018-11-25T10:03:18.143Z,101149.83
2018-11-25T10:05:47.615Z,101144.44
2018-11-25T10:08:16.395Z,101147.20
2018-11-25T10:10:52.452Z,101154.86
2018-11-25T10:13:14.455Z,101157.86
2018-11-25T10:15:43.896Z,101146.95
2018-11-25T10:18:12.628Z,101150.86
2018-11-25T10:20:44.136Z,101158.77
2018-11-25T10:23:13.824Z,101157.94
2018-11-25T10:25:42.615Z,101159.73
2018-11-25T10:28:11.466Z,101157.45
2018-11-25T10:30:40.840Z,101160.58
2018-11-25T10:33:10.333Z,101153.79
2018-11-25T10:35:39.646Z,101156.06
2018-11-25T10:38:08.574Z,101155.59
2018-11-25T10:40:37.504Z,101160.73
2018-11-25T10:43:06.399Z,101158.95
2018-11-25T10:45:35.144Z,101156.19
2018-11-25T10:48:04.096Z,101157.91
2018-11-25T10:50:33.010Z,101160.07
2018-11-25T10:53:01.827Z,101160.23
2018-11-25T10:55:30.717Z,101160.23
2018-11-25T10:58:00.314Z,101157.98
2018-11-25T11:00:38.417Z,101153.52
2018-11-25T11:03:14.985Z,101154.36
2018-11-25T11:05:50.503Z,101150.16
2018-11-25T11:08:20.197Z,101150.88
2018-11-25T11:10:50.860Z,101150.61
2018-11-25T11:13:20.743Z,101151.36
2018-11-25T11:15:52.495Z,101149.44
2018-11-25T11:18:22.336Z,101151.36
2018-11-25T11:20:53.422Z,101147.16
2018-11-25T11:44:43.189Z,101149.56
2018-11-25T11:47:12.485Z,101154.56
2018-11-25T11:49:41.349Z,101160.59
2018-11-25T11:52:10.199Z,101154.36
2018-11-25T11:54:39.218Z,101154.36
2018-11-25T11:57:08.312Z,101158.31
2018-11-25T11:59:38.043Z,101162.98
2018-11-25T12:02:07.903Z,101165.73
2018-11-25T12:04:37.634Z,101145.69
2018-11-25T12:07:06.431Z,101151.69
2018-11-25T12:09:35.840Z,101145.97
2018-11-25T12:12:04.683Z,101151.69
2018-11-25T12:14:33.535Z,101147.25
2018-11-25T12:17:02.367Z,101132.19
2018-11-25T12:19:43.142Z,101144.13
2018-11-25T12:24:52.991Z,101135.78
2018-11-25T12:27:22.538Z,101134.31
2018-11-25T12:29:52.391Z,101136.38
2018-11-25T12:32:22.792Z,101136.73
2018-11-25T12:34:51.572Z,101125.72
2018-11-25T12:37:20.488Z,101125.84
2018-11-25T12:39:49.222Z,101135.90
2018-11-25T12:42:18.014Z,101140.70
2018-11-25T12:44:47.447Z,101135.30
2018-11-25T12:47:18.309Z,101136.14
2018-11-25T12:49:47.278Z,101133.74
2018-11-25T12:52:16.463Z,101130.16
2018-11-25T12:54:45.522Z,101122.61
2018-11-25T12:57:14.600Z,101121.09
2018-11-25T12:59:44.264Z,101117.25
2018-11-25T13:02:13.797Z,101119.53
2018-11-25T13:04:42.922Z,101107.31
2018-11-25T13:07:12.181Z,101113.55
2018-11-25T13:09:41.994Z,101115.13
2018-11-25T13:12:10.896Z,101109.14
2018-11-25T13:14:40.071Z,101106.39
2018-11-25T13:17:09.756Z,101111.66
2018-11-25T13:19:39.639Z,101108.45
2018-11-25T13:22:10.050Z,101102.70
2018-11-25T13:24:39.963Z,101107.85
2018-11-25T13:27:09.537Z,101105.48
2018-11-25T13:29:39.683Z,101100.22
2018-11-25T13:32:09.284Z,101106.20
2018-11-25T13:34:38.671Z,101100.21
2018-11-25T13:37:07.492Z,101101.55
2018-11-25T13:39:36.906Z,101093.17
2018-11-25T13:42:16.057Z,101090.56
2018-11-25T13:44:44.560Z,101087.92
2018-11-25T13:47:14.790Z,101088.41
2018-11-25T13:49:44.050Z,101086.97
2018-11-25T13:52:12.820Z,101090.19
2018-11-25T13:54:41.601Z,101094.02
2018-11-25T13:57:10.341Z,101098.70
2018-11-25T13:59:40.188Z,101103.47
2018-11-25T14:02:09.847Z,101118.65
2018-11-25T14:04:39.493Z,101111.25
2018-11-25T14:07:08.857Z,101104.65
2018-11-25T14:09:39.795Z,101109.45
2018-11-25T14:12:08.802Z,101108.83
2018-11-25T14:14:39.749Z,101103.77
2018-11-25T14:17:09.347Z,101103.78
2018-11-25T14:19:38.350Z,101106.27
2018-11-25T14:22:08.459Z,101103.39
2018-11-25T14:24:37.939Z,101109.35
2018-11-25T14:27:08.897Z,101108.37
2018-11-25T14:29:39.275Z,101102.86
2018-11-25T14:32:09.116Z,101102.72
2018-11-25T14:34:39.277Z,101103.78
2018-11-25T14:37:08.328Z,101102.06
2018-11-25T14:39:39.517Z,101097.17
2018-11-25T14:42:08.797Z,101099.76
2018-11-25T14:44:38.619Z,101099.75
2018-11-25T14:47:08.387Z,101098.29
2018-11-25T14:49:38.728Z,101094.78
2018-11-25T14:52:08.091Z,101107.33
2018-11-25T14:54:37.231Z,101103.70
2018-11-25T14:57:07.559Z,101111.91
2018-11-25T14:59:38.361Z,101112.96
2018-11-25T15:02:09.243Z,101109.27
2018-11-25T15:04:38.318Z,101115.68
2018-11-25T15:07:07.492Z,101114.31
2018-11-25T15:09:37.984Z,101117.77
2018-11-25T15:12:07.392Z,101115.45
2018-11-25T15:14:37.428Z,101115.66
2018-11-25T15:17:08.365Z,101118.16
2018-11-25T15:19:37.460Z,101121.00
2018-11-25T15:22:07.687Z,101113.70
2018-11-25T15:24:38.261Z,101110.81
2018-11-25T15:27:08.969Z,101116.88
2018-11-25T15:29:38.396Z,101112.52
2018-11-25T15:32:07.392Z,101121.78
2018-11-25T15:34:37.301Z,101121.04
2018-11-25T15:37:07.036Z,101121.82
2018-11-25T15:39:36.320Z,101119.88
2018-11-25T15:42:05.234Z,101117.96
2018-11-25T15:44:34.708Z,101121.36
2018-11-25T15:47:08.507Z,101118.84
2018-11-25T15:49:37.449Z,101115.95
2018-11-25T15:52:06.538Z,101117.86
2018-11-25T15:54:35.342Z,101116.39
2018-11-25T15:57:04.197Z,101113.70
2018-11-25T15:59:33.435Z,101116.05
2018-11-25T16:02:06.636Z,101123.21
2018-11-25T16:04:35.437Z,101121.26
2018-11-25T16:07:04.557Z,101122.20
2018-11-25T16:09:34.070Z,101113.97
2018-11-25T16:12:04.014Z,101120.25
2018-11-25T16:14:33.593Z,101126.33
2018-11-25T16:17:03.188Z,101130.84
2018-11-25T16:19:32.807Z,101124.75
2018-11-25T16:22:01.583Z,101115.20
2018-11-25T16:24:31.408Z,101120.21
2018-11-25T16:27:00.795Z,101118.63
2018-11-25T16:29:29.538Z,101119.57
2018-11-25T16:31:58.847Z,101121.55
2018-11-25T16:34:28.645Z,101110.89
2018-11-25T16:36:57.449Z,101108.13
2018-11-25T16:39:26.944Z,101109.27
2018-11-25T16:41:55.769Z,101112.93
2018-11-25T16:44:25.399Z,101116.86
2018-11-25T16:46:54.950Z,101118.17
2018-11-25T16:49:23.930Z,101114.14
2018-11-25T16:51:52.793Z,101111.72
2018-11-25T16:54:21.604Z,101108.68
2018-11-25T16:56:50.388Z,101109.34
2018-11-25T16:59:19.696Z,101108.83
2018-11-25T17:01:48.956Z,101110.44
2018-11-25T17:04:17.738Z,101114.46
2018-11-25T17:06:48.051Z,101118.21
2018-11-25T17:09:17.908Z,101109.83
2018-11-25T17:11:46.672Z,101127.62
2018-11-25T17:14:15.477Z,101128.84
2018-11-25T17:16:44.655Z,101128.69
2018-11-25T17:19:13.395Z,101129.81
2018-11-25T17:21:42.221Z,101128.70
2018-11-25T17:24:11.687Z,101127.48
2018-11-25T17:26:40.701Z,101121.63
2018-11-25T17:29:09.721Z,101118.73
2018-11-25T17:31:39.092Z,101117.70
2018-11-25T17:34:08.809Z,101114.66
2018-11-25T17:36:38.536Z,101116.15
2018-11-25T17:39:09.223Z,101110.11
2018-11-25T17:41:40.127Z,101109.55
2018-11-25T17:44:10.093Z,101108.42
2018-11-25T17:46:40.462Z,101108.23
2018-11-25T17:49:09.516Z,101114.16
2018-11-25T17:51:38.926Z,101113.78
2018-11-25T17:54:08.379Z,101105.93
2018-11-25T17:56:37.312Z,101111.16
2018-11-25T17:59:06.861Z,101111.07
2018-11-25T18:01:36.236Z,101111.07
2018-11-25T18:04:05.719Z,101114.16
2018-11-25T18:06:34.505Z,101120.97
2018-11-25T18:09:04.262Z,101117.45
2018-11-25T18:11:33.105Z,101118.09
2018-11-25T18:14:02.182Z,101114.27
2018-11-25T18:16:31.963Z,101112.20
2018-11-25T18:19:27.959Z,101111.83
2018-11-25T18:22:03.007Z,101106.78
2018-11-25T18:24:32.668Z,101113.06
2018-11-25T18:27:01.472Z,101106.80
2018-11-25T18:29:31.206Z,101103.91
2018-11-25T18:32:00.034Z,101111.46
2018-11-25T18:34:28.811Z,101108.22
2018-11-25T18:36:58.608Z,101109.23
2018-11-25T18:39:28.386Z,101107.93
2018-11-25T18:41:57.379Z,101108.31
2018-11-25T18:44:27.243Z,101108.40
2018-11-25T18:46:57.879Z,101109.80
2018-11-25T18:49:27.636Z,101107.83
2018-11-25T18:51:56.624Z,101111.46
2018-11-25T18:54:25.455Z,101114.75
2018-11-25T18:56:54.302Z,101118.94
2018-11-25T18:59:23.811Z,101113.89
2018-11-25T19:02:03.828Z,101113.13
2018-11-25T19:04:32.755Z,101113.22
2018-11-25T19:07:01.486Z,101112.04
2018-11-25T19:09:31.116Z,101107.73
2018-11-25T19:11:59.880Z,101101.56
2018-11-25T19:14:29.556Z,101116.13
2018-11-25T19:16:59.409Z,101109.14
2018-11-25T19:19:28.197Z,101112.97
2018-11-25T19:21:57.143Z,101112.68
2018-11-25T19:24:27.551Z,101114.08
2018-11-25T19:26:57.257Z,101109.58
2018-11-25T19:29:26.119Z,101101.66
2018-11-25T19:31:54.964Z,101107.23
2018-11-25T19:34:23.922Z,101107.52
2018-11-25T19:36:52.775Z,101104.06
2018-11-25T19:39:21.931Z,101099.77
2018-11-25T19:41:51.307Z,101098.84
2018-11-25T19:44:21.208Z,101099.56
2018-11-25T19:46:51.443Z,101100.41
2018-11-25T19:49:20.774Z,101102.64
2018-11-25T19:51:49.597Z,101100.03
2018-11-25T19:54:19.524Z,101097.91
2018-11-25T19:56:48.577Z,101104.16
2018-11-25T19:59:19.244Z,101108.33
2018-11-25T20:01:48.739Z,101101.14
2018-11-25T20:04:17.515Z,101097.89
2018-11-25T20:06:47.112Z,101096.20
2018-11-25T20:09:16.784Z,101086.48
2018-11-25T20:11:45.634Z,101093.85
2018-11-25T20:14:14.411Z,101091.62
2018-11-25T20:16:49.117Z,101090.14
2018-11-25T20:19:17.977Z,101096.20
2018-11-25T20:21:51.991Z,101088.92
2018-11-25T20:24:21.540Z,101094.31
2018-11-25T20:26:55.411Z,101099.08
2018-11-25T20:29:24.328Z,101088.80
2018-11-25T20:31:58.731Z,101085.22
2018-11-25T20:34:28.267Z,101093.05
2018-11-25T20:36:57.151Z,101102.81
2018-11-25T20:39:32.264Z,101101.38
2018-11-25T20:42:01.098Z,101092.53
2018-11-25T20:44:30.623Z,101094.93
2018-11-25T20:47:07.886Z,101094.09
2018-11-25T20:49:36.724Z,101090.63
2018-11-25T20:52:11.031Z,101087.94
2018-11-25T20:54:39.759Z,101089.80
2018-11-25T20:57:08.500Z,101089.58
2018-11-25T20:59:38.259Z,101092.47
2018-11-25T21:02:07.497Z,101087.87
2018-11-25T21:04:36.271Z,101093.27
2018-11-25T21:07:05.115Z,101091.70
2018-11-25T21:09:34.380Z,101095.11
2018-11-25T21:12:03.119Z,101088.51
2018-11-25T21:14:36.847Z,101087.12
2018-11-25T21:17:06.006Z,101094.32
2018-11-25T21:19:34.719Z,101082.66
2018-11-25T21:22:04.609Z,101079.51
2018-11-25T21:24:33.887Z,101080.35
2018-11-25T21:27:02.607Z,101073.36
2018-11-25T21:29:32.634Z,101074.75
2018-11-25T21:32:01.397Z,101075.22
2018-11-25T21:34:30.603Z,101081.91
2018-11-25T21:36:59.716Z,101078.38
2018-11-25T21:39:29.750Z,101078.38
2018-11-25T21:41:58.612Z,101081.44
2018-11-25T21:44:28.155Z,101073.70
2018-11-25T21:46:57.492Z,101064.95
2018-11-25T21:49:26.751Z,101065.87
2018-11-25T21:51:55.502Z,101068.86
2018-11-25T21:54:24.512Z,101070.08
2018-11-25T21:56:53.370Z,101069.23
2018-11-25T21:59:23.008Z,101060.57
2018-11-25T22:01:53.894Z,101058.80
2018-11-25T22:04:22.687Z,101058.26
2018-11-25T22:06:51.471Z,101053.87
2018-11-25T22:09:22.385Z,101066.38
2018-11-25T22:11:51.177Z,101074.13
2018-11-25T22:14:19.931Z,101069.66
2018-11-25T22:16:49.171Z,101074.77
2018-11-25T22:19:18.529Z,101069.92
2018-11-25T22:21:47.243Z,101073.84
2018-11-25T22:24:16.790Z,101071.31
2018-11-25T22:26:45.571Z,101076.07
2018-11-25T22:29:14.332Z,101073.84
2018-11-25T22:31:43.064Z,101074.30
2018-11-25T22:34:11.804Z,101070.97
2018-11-25T22:36:40.848Z,101071.23
2018-11-25T22:39:10.459Z,101071.23
2018-11-25T22:41:39.756Z,101071.70
2018-11-25T22:44:09.843Z,101071.70
2018-11-25T22:46:40.027Z,101077.49
2018-11-25T22:49:08.967Z,101068.15
2018-11-25T22:51:38.526Z,101073.36
2018-11-25T22:54:07.457Z,101075.52
2018-11-25T22:56:36.515Z,101075.59
2018-11-25T22:59:06.324Z,101074.67
2018-11-25T23:01:36.747Z,101077.66
2018-11-25T23:04:16.591Z,101074.20
2018-11-25T23:07:02.963Z,101079.42
2018-11-25T23:09:32.334Z,101080.73
2018-11-25T23:12:01.128Z,101074.67
2018-11-25T23:14:30.955Z,101077.74
2018-11-25T23:17:00.616Z,101079.59
2018-11-25T23:19:29.391Z,101086.20
2018-11-25T23:21:58.124Z,101082.56
2018-11-25T23:24:27.939Z,101080.96
2018-11-25T23:26:57.046Z,101080.66
2018-11-25T23:29:26.453Z,101084.20
2018-11-25T23:31:56.320Z,101080.83
2018-11-25T23:34:25.439Z,101083.44
2018-11-25T23:36:54.867Z,101079.14
2018-11-25T23:39:24.807Z,101067.41
2018-11-25T23:41:54.336Z,101074.39
2018-11-25T23:44:23.859Z,101066.95
2018-11-25T23:46:54.356Z,101068.03
2018-11-25T23:49:23.533Z,101063.17
2018-11-25T23:51:52.962Z,101063.72
2018-11-25T23:54:21.742Z,101063.34
2018-11-25T23:56:50.509Z,101058.75
2018-11-25T23:59:20.483Z,101057.56
